sensor_id;sensor_type;location;lat;lon;timestamp;P1;durP1;ratioP1;P2;durP2;ratioP2
41643;SDS011;44236;48.098;11.582;2023-09-19T00:00:20;2.47;;;0.90;;
41643;SDS011;44236;48.098;11.582;2023-09-19T00:02:51;1.02;;;0.50;;
41643;SDS011;44236;48.098;11.582;2023-09-19T00:05:18;0.95;;;0.60;;
41643;SDS011;44236;48.098;11.582;2023-09-19T00:07:48;1.83;;;0.73;;
41643;SDS011;44236;48.098;11.582;2023-09-19T00:10:20;1.20;;;0.60;;
41643;SDS011;44236;48.098;11.582;2023-09-19T00:12:49;1.88;;;0.80;;
41643;SDS011;44236;48.098;11.582;2023-09-19T00:15:22;1.33;;;0.70;;
41643;SDS011;44236;48.098;11.582;2023-09-19T00:17:48;2.33;;;0.80;;
41643;SDS011;44236;48.098;11.582;2023-09-19T00:20:14;2.00;;;1.10;;
41643;SDS011;44236;48.098;11.582;2023-09-19T00:22:43;1.38;;;0.57;;
41643;SDS011;44236;48.098;11.582;2023-09-19T00:25:09;1.50;;;0.80;;
41643;SDS011;44236;48.098;11.582;2023-09-19T00:27:35;0.98;;;0.60;;
41643;SDS011;44236;48.098;11.582;2023-09-19T00:30:06;1.05;;;0.43;;
41643;SDS011;44236;48.098;11.582;2023-09-19T00:32:34;1.77;;;0.60;;
41643;SDS011;44236;48.098;11.582;2023-09-19T00:34:59;1.40;;;0.63;;
41643;SDS011;44236;48.098;11.582;2023-09-19T00:37:25;3.10;;;0.63;;
41643;SDS011;44236;48.098;11.582;2023-09-19T00:39:51;2.75;;;0.90;;
41643;SDS011;44236;48.098;11.582;2023-09-19T00:42:20;1.60;;;0.80;;
41643;SDS011;44236;48.098;11.582;2023-09-19T00:44:46;1.80;;;0.80;;
41643;SDS011;44236;48.098;11.582;2023-09-19T00:47:12;2.03;;;0.80;;
41643;SDS011;44236;48.098;11.582;2023-09-19T00:49:42;3.03;;;0.73;;
41643;SDS011;44236;48.098;11.582;2023-09-19T00:52:15;0.98;;;0.55;;
41643;SDS011;44236;48.098;11.582;2023-09-19T00:54:44;3.15;;;1.25;;
41643;SDS011;44236;48.098;11.582;2023-09-19T00:57:11;2.55;;;0.57;;
41643;SDS011;44236;48.098;11.582;2023-09-19T00:59:37;2.00;;;0.73;;
41643;SDS011;44236;48.098;11.582;2023-09-19T01:02:03;1.45;;;0.85;;
41643;SDS011;44236;48.098;11.582;2023-09-19T01:04:29;2.78;;;0.90;;
41643;SDS011;44236;48.098;11.582;2023-09-19T01:06:55;1.30;;;0.82;;
41643;SDS011;44236;48.098;11.582;2023-09-19T01:09:22;2.13;;;0.63;;
41643;SDS011;44236;48.098;11.582;2023-09-19T01:11:49;2.53;;;1.38;;
41643;SDS011;44236;48.098;11.582;2023-09-19T01:25:44;1.30;;;0.75;;
41643;SDS011;44236;48.098;11.582;2023-09-19T01:28:20;0.65;;;0.50;;
41643;SDS011;44236;48.098;11.582;2023-09-19T01:31:01;0.85;;;0.43;;
41643;SDS011;44236;48.098;11.582;2023-09-19T01:33:28;2.08;;;0.70;;
41643;SDS011;44236;48.098;11.582;2023-09-19T01:36:16;1.42;;;0.70;;
41643;SDS011;44236;48.098;11.582;2023-09-19T01:38:41;1.73;;;0.70;;
41643;SDS011;44236;48.098;11.582;2023-09-19T01:41:11;1.58;;;0.60;;
41643;SDS011;44236;48.098;11.582;2023-09-19T01:43:46;1.98;;;0.75;;
41643;SDS011;44236;48.098;11.582;2023-09-19T01:46:15;0.82;;;0.55;;
41643;SDS011;44236;48.098;11.582;2023-09-19T01:51:46;3.15;;;0.57;;
41643;SDS011;44236;48.098;11.582;2023-09-19T01:54:16;1.17;;;0.63;;
41643;SDS011;44236;48.098;11.582;2023-09-19T01:56:52;1.27;;;0.60;;
41643;SDS011;44236;48.098;11.582;2023-09-19T01:59:41;2.13;;;0.77;;
41643;SDS011;44236;48.098;11.582;2023-09-19T02:02:12;1.90;;;0.60;;
41643;SDS011;44236;48.098;11.582;2023-09-19T02:04:40;0.73;;;0.50;;
41643;SDS011;44236;48.098;11.582;2023-09-19T02:07:05;2.03;;;0.95;;
41643;SDS011;44236;48.098;11.582;2023-09-19T02:09:31;4.50;;;0.70;;
41643;SDS011;44236;48.098;11.582;2023-09-19T02:12:00;1.17;;;0.63;;
41643;SDS011;44236;48.098;11.582;2023-09-19T02:14:26;0.90;;;0.73;;
41643;SDS011;44236;48.098;11.582;2023-09-19T02:16:52;1.15;;;0.70;;
41643;SDS011;44236;48.098;11.582;2023-09-19T02:19:18;2.97;;;0.70;;
41643;SDS011;44236;48.098;11.582;2023-09-19T02:21:46;1.02;;;0.60;;
41643;SDS011;44236;48.098;11.582;2023-09-19T02:24:13;0.75;;;0.60;;
41643;SDS011;44236;48.098;11.582;2023-09-19T02:26:40;1.45;;;0.60;;
41643;SDS011;44236;48.098;11.582;2023-09-19T02:29:06;1.15;;;0.57;;
41643;SDS011;44236;48.098;11.582;2023-09-19T02:31:31;1.98;;;0.70;;
41643;SDS011;44236;48.098;11.582;2023-09-19T02:33:57;1.33;;;0.60;;
41643;SDS011;44236;48.098;11.582;2023-09-19T02:36:23;1.45;;;0.95;;
41643;SDS011;44236;48.098;11.582;2023-09-19T02:38:48;1.48;;;0.90;;
41643;SDS011;44236;48.098;11.582;2023-09-19T02:41:14;1.52;;;0.70;;
41643;SDS011;44236;48.098;11.582;2023-09-19T02:43:40;1.13;;;0.60;;
41643;SDS011;44236;48.098;11.582;2023-09-19T02:46:08;1.33;;;0.85;;
41643;SDS011;44236;48.098;11.582;2023-09-19T02:48:34;1.63;;;0.80;;
41643;SDS011;44236;48.098;11.582;2023-09-19T02:51:00;1.35;;;0.70;;
41643;SDS011;44236;48.098;11.582;2023-09-19T02:53:26;1.48;;;0.60;;
41643;SDS011;44236;48.098;11.582;2023-09-19T02:55:52;1.63;;;0.82;;
41643;SDS011;44236;48.098;11.582;2023-09-19T02:58:18;2.05;;;0.80;;
41643;SDS011;44236;48.098;11.582;2023-09-19T03:00:44;1.30;;;0.52;;
41643;SDS011;44236;48.098;11.582;2023-09-19T03:03:14;1.13;;;0.60;;
41643;SDS011;44236;48.098;11.582;2023-09-19T03:05:43;1.42;;;1.00;;
41643;SDS011;44236;48.098;11.582;2023-09-19T03:08:15;2.03;;;0.70;;
41643;SDS011;44236;48.098;11.582;2023-09-19T03:10:41;1.20;;;0.57;;
41643;SDS011;44236;48.098;11.582;2023-09-19T03:13:07;1.33;;;0.70;;
41643;SDS011;44236;48.098;11.582;2023-09-19T03:15:35;1.13;;;0.52;;
41643;SDS011;44236;48.098;11.582;2023-09-19T03:18:04;1.33;;;0.65;;
41643;SDS011;44236;48.098;11.582;2023-09-19T03:20:30;1.02;;;0.50;;
41643;SDS011;44236;48.098;11.582;2023-09-19T03:22:56;0.95;;;0.52;;
41643;SDS011;44236;48.098;11.582;2023-09-19T03:25:22;1.23;;;0.60;;
41643;SDS011;44236;48.098;11.582;2023-09-19T03:27:49;1.95;;;0.63;;
41643;SDS011;44236;48.098;11.582;2023-09-19T03:30:14;1.00;;;0.65;;
41643;SDS011;44236;48.098;11.582;2023-09-19T03:32:45;0.95;;;0.65;;
41643;SDS011;44236;48.098;11.582;2023-09-19T03:35:12;1.63;;;0.80;;
41643;SDS011;44236;48.098;11.582;2023-09-19T03:37:40;1.33;;;0.60;;
41643;SDS011;44236;48.098;11.582;2023-09-19T03:40:06;1.92;;;0.65;;
41643;SDS011;44236;48.098;11.582;2023-09-19T03:42:33;1.65;;;0.80;;
41643;SDS011;44236;48.098;11.582;2023-09-19T03:45:01;2.28;;;0.93;;
41643;SDS011;44236;48.098;11.582;2023-09-19T03:47:30;1.85;;;0.75;;
41643;SDS011;44236;48.098;11.582;2023-09-19T03:49:56;1.25;;;0.60;;
41643;SDS011;44236;48.098;11.582;2023-09-19T03:52:21;0.63;;;0.55;;
41643;SDS011;44236;48.098;11.582;2023-09-19T03:54:47;1.75;;;0.60;;
41643;SDS011;44236;48.098;11.582;2023-09-19T03:57:12;0.80;;;0.52;;
41643;SDS011;44236;48.098;11.582;2023-09-19T03:59:40;2.38;;;0.80;;
41643;SDS011;44236;48.098;11.582;2023-09-19T04:02:08;1.27;;;0.60;;
41643;SDS011;44236;48.098;11.582;2023-09-19T04:04:47;0.68;;;0.50;;
41643;SDS011;44236;48.098;11.582;2023-09-19T04:07:13;0.85;;;0.43;;
41643;SDS011;44236;48.098;11.582;2023-09-19T04:09:40;0.60;;;0.40;;
41643;SDS011;44236;48.098;11.582;2023-09-19T04:12:06;0.70;;;0.50;;
41643;SDS011;44236;48.098;11.582;2023-09-19T04:14:35;1.05;;;0.52;;
41643;SDS011;44236;48.098;11.582;2023-09-19T04:17:02;1.33;;;0.68;;
41643;SDS011;44236;48.098;11.582;2023-09-19T04:19:31;1.50;;;0.70;;
41643;SDS011;44236;48.098;11.582;2023-09-19T04:21:57;1.80;;;0.82;;
41643;SDS011;44236;48.098;11.582;2023-09-19T04:24:22;1.00;;;0.50;;
41643;SDS011;44236;48.098;11.582;2023-09-19T04:26:48;1.20;;;0.60;;
41643;SDS011;44236;48.098;11.582;2023-09-19T04:29:15;0.98;;;0.52;;
41643;SDS011;44236;48.098;11.582;2023-09-19T04:31:42;1.08;;;0.63;;
41643;SDS011;44236;48.098;11.582;2023-09-19T04:34:10;3.00;;;0.98;;
41643;SDS011;44236;48.098;11.582;2023-09-19T04:36:37;1.17;;;0.70;;
41643;SDS011;44236;48.098;11.582;2023-09-19T04:39:03;2.17;;;0.65;;
41643;SDS011;44236;48.098;11.582;2023-09-19T04:41:32;1.00;;;0.50;;
41643;SDS011;44236;48.098;11.582;2023-09-19T04:43:58;1.50;;;0.60;;
41643;SDS011;44236;48.098;11.582;2023-09-19T04:46:24;1.58;;;0.73;;
41643;SDS011;44236;48.098;11.582;2023-09-19T04:48:50;4.97;;;0.63;;
41643;SDS011;44236;48.098;11.582;2023-09-19T04:51:17;1.70;;;0.73;;
41643;SDS011;44236;48.098;11.582;2023-09-19T04:53:44;4.53;;;0.93;;
41643;SDS011;44236;48.098;11.582;2023-09-19T04:56:09;2.50;;;0.65;;
41643;SDS011;44236;48.098;11.582;2023-09-19T04:58:35;1.80;;;0.80;;
41643;SDS011;44236;48.098;11.582;2023-09-19T05:01:00;3.80;;;1.35;;
41643;SDS011;44236;48.098;11.582;2023-09-19T05:03:27;2.65;;;1.10;;
41643;SDS011;44236;48.098;11.582;2023-09-19T05:05:52;3.72;;;0.80;;
41643;SDS011;44236;48.098;11.582;2023-09-19T05:08:18;2.88;;;1.00;;
41643;SDS011;44236;48.098;11.582;2023-09-19T05:10:44;2.03;;;0.73;;
41643;SDS011;44236;48.098;11.582;2023-09-19T05:13:10;2.17;;;0.93;;
41643;SDS011;44236;48.098;11.582;2023-09-19T05:15:37;3.15;;;0.93;;
41643;SDS011;44236;48.098;11.582;2023-09-19T05:18:02;2.03;;;1.17;;
41643;SDS011;44236;48.098;11.582;2023-09-19T05:20:31;5.85;;;1.10;;
41643;SDS011;44236;48.098;11.582;2023-09-19T05:23:03;3.85;;;1.10;;
41643;SDS011;44236;48.098;11.582;2023-09-19T05:25:32;0.82;;;0.57;;
41643;SDS011;44236;48.098;11.582;2023-09-19T05:28:02;2.95;;;0.73;;
41643;SDS011;44236;48.098;11.582;2023-09-19T05:30:30;3.53;;;1.08;;
41643;SDS011;44236;48.098;11.582;2023-09-19T05:32:57;2.38;;;0.90;;
41643;SDS011;44236;48.098;11.582;2023-09-19T05:35:23;2.42;;;0.80;;
41643;SDS011;44236;48.098;11.582;2023-09-19T05:37:50;4.35;;;1.58;;
41643;SDS011;44236;48.098;11.582;2023-09-19T05:40:19;4.93;;;1.00;;
41643;SDS011;44236;48.098;11.582;2023-09-19T05:42:45;1.88;;;0.82;;
41643;SDS011;44236;48.098;11.582;2023-09-19T05:45:11;8.57;;;1.00;;
41643;SDS011;44236;48.098;11.582;2023-09-19T05:47:38;7.13;;;1.10;;
41643;SDS011;44236;48.098;11.582;2023-09-19T05:50:08;5.93;;;1.42;;
41643;SDS011;44236;48.098;11.582;2023-09-19T05:52:34;6.95;;;1.65;;
41643;SDS011;44236;48.098;11.582;2023-09-19T05:55:03;10.27;;;2.97;;
41643;SDS011;44236;48.098;11.582;2023-09-19T05:57:35;10.50;;;1.77;;
41643;SDS011;44236;48.098;11.582;2023-09-19T06:00:02;8.90;;;2.17;;
41643;SDS011;44236;48.098;11.582;2023-09-19T06:02:33;13.18;;;2.53;;
41643;SDS011;44236;48.098;11.582;2023-09-19T06:05:00;16.48;;;2.22;;
41643;SDS011;44236;48.098;11.582;2023-09-19T06:07:29;10.80;;;2.00;;
41643;SDS011;44236;48.098;11.582;2023-09-19T06:10:01;9.40;;;3.17;;
41643;SDS011;44236;48.098;11.582;2023-09-19T06:12:31;9.10;;;2.33;;
41643;SDS011;44236;48.098;11.582;2023-09-19T06:15:03;9.32;;;1.85;;
41643;SDS011;44236;48.098;11.582;2023-09-19T06:17:34;9.90;;;2.25;;
41643;SDS011;44236;48.098;11.582;2023-09-19T06:20:04;14.20;;;4.15;;
41643;SDS011;44236;48.098;11.582;2023-09-19T06:22:42;12.95;;;2.90;;
41643;SDS011;44236;48.098;11.582;2023-09-19T06:25:09;14.32;;;1.85;;
41643;SDS011;44236;48.098;11.582;2023-09-19T06:27:38;18.02;;;3.70;;
41643;SDS011;44236;48.098;11.582;2023-09-19T06:30:07;16.27;;;3.17;;
41643;SDS011;44236;48.098;11.582;2023-09-19T06:32:34;18.70;;;2.25;;
41643;SDS011;44236;48.098;11.582;2023-09-19T06:35:00;6.32;;;1.92;;
41643;SDS011;44236;48.098;11.582;2023-09-19T06:37:29;9.35;;;1.67;;
41643;SDS011;44236;48.098;11.582;2023-09-19T06:39:55;8.25;;;2.10;;
41643;SDS011;44236;48.098;11.582;2023-09-19T06:42:22;7.10;;;2.50;;
41643;SDS011;44236;48.098;11.582;2023-09-19T06:44:48;13.00;;;2.60;;
41643;SDS011;44236;48.098;11.582;2023-09-19T06:47:14;4.97;;;1.58;;
41643;SDS011;44236;48.098;11.582;2023-09-19T06:49:41;9.10;;;2.15;;
41643;SDS011;44236;48.098;11.582;2023-09-19T06:52:10;7.63;;;1.95;;
41643;SDS011;44236;48.098;11.582;2023-09-19T06:54:38;6.10;;;1.95;;
41643;SDS011;44236;48.098;11.582;2023-09-19T06:57:05;5.88;;;1.60;;
41643;SDS011;44236;48.098;11.582;2023-09-19T06:59:31;5.70;;;1.38;;
41643;SDS011;44236;48.098;11.582;2023-09-19T07:01:57;7.28;;;1.60;;
41643;SDS011;44236;48.098;11.582;2023-09-19T07:04:24;5.40;;;1.92;;
41643;SDS011;44236;48.098;11.582;2023-09-19T07:06:52;8.70;;;2.28;;
41643;SDS011;44236;48.098;11.582;2023-09-19T07:09:18;9.63;;;1.92;;
41643;SDS011;44236;48.098;11.582;2023-09-19T07:11:44;7.38;;;1.50;;
41643;SDS011;44236;48.098;11.582;2023-09-19T07:14:10;12.38;;;1.90;;
41643;SDS011;44236;48.098;11.582;2023-09-19T07:16:38;4.10;;;1.33;;
41643;SDS011;44236;48.098;11.582;2023-09-19T07:19:04;8.88;;;1.45;;
41643;SDS011;44236;48.098;11.582;2023-09-19T07:21:30;3.13;;;1.20;;
41643;SDS011;44236;48.098;11.582;2023-09-19T07:23:59;4.60;;;1.30;;
41643;SDS011;44236;48.098;11.582;2023-09-19T07:26:25;5.25;;;1.73;;
41643;SDS011;44236;48.098;11.582;2023-09-19T07:28:53;5.57;;;1.80;;
41643;SDS011;44236;48.098;11.582;2023-09-19T07:31:19;4.32;;;1.50;;
41643;SDS011;44236;48.098;11.582;2023-09-19T07:33:44;6.93;;;1.52;;
41643;SDS011;44236;48.098;11.582;2023-09-19T07:36:10;9.93;;;1.92;;
41643;SDS011;44236;48.098;11.582;2023-09-19T07:38:38;3.78;;;1.17;;
41643;SDS011;44236;48.098;11.582;2023-09-19T07:41:04;5.82;;;1.70;;
41643;SDS011;44236;48.098;11.582;2023-09-19T07:43:30;5.55;;;1.67;;
41643;SDS011;44236;48.098;11.582;2023-09-19T07:45:57;5.53;;;1.20;;
41643;SDS011;44236;48.098;11.582;2023-09-19T07:48:25;4.47;;;1.20;;
41643;SDS011;44236;48.098;11.582;2023-09-19T07:50:51;5.65;;;1.27;;
41643;SDS011;44236;48.098;11.582;2023-09-19T07:53:16;3.55;;;0.95;;
41643;SDS011;44236;48.098;11.582;2023-09-19T07:55:42;2.20;;;0.80;;
41643;SDS011;44236;48.098;11.582;2023-09-19T07:58:13;5.77;;;1.20;;
41643;SDS011;44236;48.098;11.582;2023-09-19T08:00:40;2.28;;;0.80;;
41643;SDS011;44236;48.098;11.582;2023-09-19T08:03:06;4.18;;;1.20;;
41643;SDS011;44236;48.098;11.582;2023-09-19T08:05:33;4.85;;;1.30;;
41643;SDS011;44236;48.098;11.582;2023-09-19T08:07:59;6.07;;;1.38;;
41643;SDS011;44236;48.098;11.582;2023-09-19T08:10:26;3.35;;;0.93;;
41643;SDS011;44236;48.098;11.582;2023-09-19T08:12:52;4.88;;;1.10;;
41643;SDS011;44236;48.098;11.582;2023-09-19T08:15:23;2.80;;;0.82;;
41643;SDS011;44236;48.098;11.582;2023-09-19T08:17:51;2.85;;;1.13;;
41643;SDS011;44236;48.098;11.582;2023-09-19T08:20:17;4.18;;;0.95;;
41643;SDS011;44236;48.098;11.582;2023-09-19T08:22:46;4.05;;;1.23;;
41643;SDS011;44236;48.098;11.582;2023-09-19T08:25:17;3.70;;;1.17;;
41643;SDS011;44236;48.098;11.582;2023-09-19T08:27:44;4.13;;;1.20;;
41643;SDS011;44236;48.098;11.582;2023-09-19T08:30:14;5.78;;;1.42;;
41643;SDS011;44236;48.098;11.582;2023-09-19T08:32:41;3.38;;;1.30;;
41643;SDS011;44236;48.098;11.582;2023-09-19T08:35:07;4.75;;;1.15;;
41643;SDS011;44236;48.098;11.582;2023-09-19T08:37:34;3.00;;;0.98;;
41643;SDS011;44236;48.098;11.582;2023-09-19T08:40:00;2.53;;;0.80;;
41643;SDS011;44236;48.098;11.582;2023-09-19T08:42:26;3.35;;;0.77;;
41643;SDS011;44236;48.098;11.582;2023-09-19T08:44:55;3.72;;;1.00;;
41643;SDS011;44236;48.098;11.582;2023-09-19T08:47:41;1.30;;;0.70;;
41643;SDS011;44236;48.098;11.582;2023-09-19T08:52:48;2.45;;;0.80;;
41643;SDS011;44236;48.098;11.582;2023-09-19T08:55:18;1.58;;;1.00;;
41643;SDS011;44236;48.098;11.582;2023-09-19T08:57:47;3.25;;;1.02;;
41643;SDS011;44236;48.098;11.582;2023-09-19T09:00:15;2.15;;;0.90;;
41643;SDS011;44236;48.098;11.582;2023-09-19T09:02:46;2.95;;;0.82;;
41643;SDS011;44236;48.098;11.582;2023-09-19T09:05:12;3.70;;;0.95;;
41643;SDS011;44236;48.098;11.582;2023-09-19T09:07:40;2.70;;;1.10;;
41643;SDS011;44236;48.098;11.582;2023-09-19T09:10:07;2.17;;;0.95;;
41643;SDS011;44236;48.098;11.582;2023-09-19T09:12:34;2.40;;;1.00;;
41643;SDS011;44236;48.098;11.582;2023-09-19T09:15:06;1.90;;;0.88;;
41643;SDS011;44236;48.098;11.582;2023-09-19T09:17:33;4.03;;;0.80;;
41643;SDS011;44236;48.098;11.582;2023-09-19T09:19:59;2.55;;;0.82;;
41643;SDS011;44236;48.098;11.582;2023-09-19T09:22:25;2.28;;;0.70;;
41643;SDS011;44236;48.098;11.582;2023-09-19T09:24:55;3.75;;;1.08;;
41643;SDS011;44236;48.098;11.582;2023-09-19T09:27:23;4.32;;;0.90;;
41643;SDS011;44236;48.098;11.582;2023-09-19T09:29:50;1.88;;;0.80;;
41643;SDS011;44236;48.098;11.582;2023-09-19T09:32:18;2.65;;;0.70;;
41643;SDS011;44236;48.098;11.582;2023-09-19T09:34:49;1.35;;;0.80;;
41643;SDS011;44236;48.098;11.582;2023-09-19T09:37:17;1.98;;;0.60;;
41643;SDS011;44236;48.098;11.582;2023-09-19T09:39:57;1.35;;;0.80;;
41643;SDS011;44236;48.098;11.582;2023-09-19T09:42:37;4.45;;;1.38;;
41643;SDS011;44236;48.098;11.582;2023-09-19T09:45:22;2.72;;;0.90;;
41643;SDS011;44236;48.098;11.582;2023-09-19T09:47:58;1.98;;;0.88;;
41643;SDS011;44236;48.098;11.582;2023-09-19T09:50:28;2.03;;;0.80;;
41643;SDS011;44236;48.098;11.582;2023-09-19T09:53:21;2.83;;;1.27;;
41643;SDS011;44236;48.098;11.582;2023-09-19T09:56:02;2.40;;;1.17;;
41643;SDS011;44236;48.098;11.582;2023-09-19T09:58:31;1.13;;;0.60;;
41643;SDS011;44236;48.098;11.582;2023-09-19T10:01:13;1.95;;;0.70;;
41643;SDS011;44236;48.098;11.582;2023-09-19T10:03:41;4.10;;;0.98;;
41643;SDS011;44236;48.098;11.582;2023-09-19T10:06:14;1.15;;;0.63;;
41643;SDS011;44236;48.098;11.582;2023-09-19T10:11:42;2.53;;;0.90;;
41643;SDS011;44236;48.098;11.582;2023-09-19T10:14:09;1.83;;;0.70;;
41643;SDS011;44236;48.098;11.582;2023-09-19T10:16:49;1.38;;;0.60;;
41643;SDS011;44236;48.098;11.582;2023-09-19T10:19:15;1.80;;;0.70;;
41643;SDS011;44236;48.098;11.582;2023-09-19T10:21:48;1.65;;;0.80;;
41643;SDS011;44236;48.098;11.582;2023-09-19T10:24:15;1.77;;;0.70;;
41643;SDS011;44236;48.098;11.582;2023-09-19T10:26:43;1.77;;;0.80;;
41643;SDS011;44236;48.098;11.582;2023-09-19T10:29:10;1.13;;;0.60;;
41643;SDS011;44236;48.098;11.582;2023-09-19T10:31:39;1.50;;;0.90;;
41643;SDS011;44236;48.098;11.582;2023-09-19T10:34:12;1.77;;;0.73;;
41643;SDS011;44236;48.098;11.582;2023-09-19T10:36:44;3.10;;;1.00;;
41643;SDS011;44236;48.098;11.582;2023-09-19T10:39:12;1.33;;;0.73;;
41643;SDS011;44236;48.098;11.582;2023-09-19T10:41:43;1.27;;;0.55;;
41643;SDS011;44236;48.098;11.582;2023-09-19T10:44:12;2.17;;;0.80;;
41643;SDS011;44236;48.098;11.582;2023-09-19T10:46:39;1.13;;;0.60;;
41643;SDS011;44236;48.098;11.582;2023-09-19T10:49:05;1.63;;;0.75;;
41643;SDS011;44236;48.098;11.582;2023-09-19T10:51:41;1.63;;;0.70;;
41643;SDS011;44236;48.098;11.582;2023-09-19T10:54:08;1.83;;;0.50;;
41643;SDS011;44236;48.098;11.582;2023-09-19T10:56:38;1.35;;;0.60;;
41643;SDS011;44236;48.098;11.582;2023-09-19T10:59:20;2.67;;;0.73;;
41643;SDS011;44236;48.098;11.582;2023-09-19T11:04:29;1.13;;;0.65;;
41643;SDS011;44236;48.098;11.582;2023-09-19T11:09:44;1.17;;;0.60;;
41643;SDS011;44236;48.098;11.582;2023-09-19T11:15:02;1.27;;;0.80;;
41643;SDS011;44236;48.098;11.582;2023-09-19T11:17:42;2.65;;;1.00;;
41643;SDS011;44236;48.098;11.582;2023-09-19T11:30:46;1.65;;;0.75;;
41643;SDS011;44236;48.098;11.582;2023-09-19T11:36:13;0.85;;;0.60;;
41643;SDS011;44236;48.098;11.582;2023-09-19T11:46:34;1.35;;;0.85;;
41643;SDS011;44236;48.098;11.582;2023-09-19T11:49:17;1.17;;;0.60;;
41643;SDS011;44236;48.098;11.582;2023-09-19T11:54:17;1.02;;;0.55;;
41643;SDS011;44236;48.098;11.582;2023-09-19T11:56:44;1.80;;;0.70;;
41643;SDS011;44236;48.098;11.582;2023-09-19T11:59:11;1.95;;;0.60;;
41643;SDS011;44236;48.098;11.582;2023-09-19T12:01:50;1.17;;;0.40;;
41643;SDS011;44236;48.098;11.582;2023-09-19T12:04:44;1.27;;;0.60;;
41643;SDS011;44236;48.098;11.582;2023-09-19T12:07:14;1.10;;;0.65;;
41643;SDS011;44236;48.098;11.582;2023-09-19T12:09:51;2.67;;;0.82;;
41643;SDS011;44236;48.098;11.582;2023-09-19T12:12:30;1.02;;;0.50;;
41643;SDS011;44236;48.098;11.582;2023-09-19T12:14:58;0.88;;;0.40;;
41643;SDS011;44236;48.098;11.582;2023-09-19T12:20:02;1.85;;;0.75;;
41643;SDS011;44236;48.098;11.582;2023-09-19T12:25:09;2.63;;;0.82;;
41643;SDS011;44236;48.098;11.582;2023-09-19T12:27:45;1.33;;;0.60;;
41643;SDS011;44236;48.098;11.582;2023-09-19T12:30:18;0.32;;;0.28;;
41643;SDS011;44236;48.098;11.582;2023-09-19T12:32:45;1.13;;;0.50;;
41643;SDS011;44236;48.098;11.582;2023-09-19T12:35:32;1.40;;;0.85;;
41643;SDS011;44236;48.098;11.582;2023-09-19T12:38:02;0.60;;;0.43;;
41643;SDS011;44236;48.098;11.582;2023-09-19T12:40:28;0.93;;;0.60;;
41643;SDS011;44236;48.098;11.582;2023-09-19T12:42:58;1.30;;;0.60;;
41643;SDS011;44236;48.098;11.582;2023-09-19T12:45:24;1.70;;;0.75;;
41643;SDS011;44236;48.098;11.582;2023-09-19T12:48:33;1.95;;;0.70;;
41643;SDS011;44236;48.098;11.582;2023-09-19T12:53:30;0.85;;;0.50;;
41643;SDS011;44236;48.098;11.582;2023-09-19T12:56:07;1.80;;;0.80;;
41643;SDS011;44236;48.098;11.582;2023-09-19T12:58:35;3.45;;;0.70;;
41643;SDS011;44236;48.098;11.582;2023-09-19T13:01:14;1.08;;;0.60;;
41643;SDS011;44236;48.098;11.582;2023-09-19T13:03:41;0.70;;;0.52;;
41643;SDS011;44236;48.098;11.582;2023-09-19T13:06:10;0.90;;;0.50;;
41643;SDS011;44236;48.098;11.582;2023-09-19T13:08:38;1.10;;;0.60;;
41643;SDS011;44236;48.098;11.582;2023-09-19T13:13:37;1.17;;;0.63;;
41643;SDS011;44236;48.098;11.582;2023-09-19T13:16:09;0.95;;;0.60;;
41643;SDS011;44236;48.098;11.582;2023-09-19T13:18:41;0.85;;;0.60;;
41643;SDS011;44236;48.098;11.582;2023-09-19T13:21:10;1.27;;;0.55;;
41643;SDS011;44236;48.098;11.582;2023-09-19T13:23:43;0.55;;;0.43;;
41643;SDS011;44236;48.098;11.582;2023-09-19T13:26:09;0.85;;;0.43;;
41643;SDS011;44236;48.098;11.582;2023-09-19T13:28:35;1.50;;;0.63;;
41643;SDS011;44236;48.098;11.582;2023-09-19T13:31:02;1.80;;;0.80;;
41643;SDS011;44236;48.098;11.582;2023-09-19T13:33:28;0.80;;;0.60;;
41643;SDS011;44236;48.098;11.582;2023-09-19T13:35:54;2.30;;;1.00;;
41643;SDS011;44236;48.098;11.582;2023-09-19T13:38:20;2.40;;;0.70;;
41643;SDS011;44236;48.098;11.582;2023-09-19T13:40:47;1.00;;;0.68;;
41643;SDS011;44236;48.098;11.582;2023-09-19T13:43:12;1.33;;;0.80;;
41643;SDS011;44236;48.098;11.582;2023-09-19T13:45:38;1.23;;;0.50;;
41643;SDS011;44236;48.098;11.582;2023-09-19T13:48:07;1.13;;;0.57;;
41643;SDS011;44236;48.098;11.582;2023-09-19T13:50:34;0.93;;;0.50;;
41643;SDS011;44236;48.098;11.582;2023-09-19T13:53:01;1.33;;;0.60;;
41643;SDS011;44236;48.098;11.582;2023-09-19T13:55:27;0.85;;;0.40;;
41643;SDS011;44236;48.098;11.582;2023-09-19T13:57:53;1.45;;;0.82;;
41643;SDS011;44236;48.098;11.582;2023-09-19T14:00:20;3.20;;;0.90;;
41643;SDS011;44236;48.098;11.582;2023-09-19T14:02:47;0.90;;;0.50;;
41643;SDS011;44236;48.098;11.582;2023-09-19T14:05:14;1.15;;;0.60;;
41643;SDS011;44236;48.098;11.582;2023-09-19T14:07:41;0.65;;;0.50;;
41643;SDS011;44236;48.098;11.582;2023-09-19T14:10:08;0.82;;;0.55;;
41643;SDS011;44236;48.098;11.582;2023-09-19T14:12:36;1.60;;;0.88;;
41643;SDS011;44236;48.098;11.582;2023-09-19T14:15:02;4.07;;;0.70;;
41643;SDS011;44236;48.098;11.582;2023-09-19T14:17:32;1.40;;;0.60;;
41643;SDS011;44236;48.098;11.582;2023-09-19T14:19:58;1.10;;;0.60;;
41643;SDS011;44236;48.098;11.582;2023-09-19T14:22:23;1.00;;;0.50;;
41643;SDS011;44236;48.098;11.582;2023-09-19T14:24:49;1.70;;;0.82;;
41643;SDS011;44236;48.098;11.582;2023-09-19T14:27:14;1.70;;;0.65;;
41643;SDS011;44236;48.098;11.582;2023-09-19T14:29:40;1.63;;;0.85;;
41643;SDS011;44236;48.098;11.582;2023-09-19T14:32:06;0.95;;;0.63;;
41643;SDS011;44236;48.098;11.582;2023-09-19T14:34:32;1.63;;;0.60;;
41643;SDS011;44236;48.098;11.582;2023-09-19T14:36:58;2.63;;;0.80;;
41643;SDS011;44236;48.098;11.582;2023-09-19T14:39:23;0.85;;;0.55;;
41643;SDS011;44236;48.098;11.582;2023-09-19T14:41:50;1.10;;;0.60;;
41643;SDS011;44236;48.098;11.582;2023-09-19T14:44:15;0.80;;;0.50;;
41643;SDS011;44236;48.098;11.582;2023-09-19T14:46:41;0.82;;;0.50;;
41643;SDS011;44236;48.098;11.582;2023-09-19T14:49:09;1.30;;;0.60;;
41643;SDS011;44236;48.098;11.582;2023-09-19T14:51:35;1.35;;;0.68;;
41643;SDS011;44236;48.098;11.582;2023-09-19T14:54:02;0.88;;;0.50;;
41643;SDS011;44236;48.098;11.582;2023-09-19T14:56:28;0.73;;;0.50;;
41643;SDS011;44236;48.098;11.582;2023-09-19T14:58:56;1.38;;;1.10;;
41643;SDS011;44236;48.098;11.582;2023-09-19T15:01:21;1.30;;;0.60;;
41643;SDS011;44236;48.098;11.582;2023-09-19T15:03:47;1.75;;;0.65;;
41643;SDS011;44236;48.098;11.582;2023-09-19T15:06:14;2.33;;;1.13;;
41643;SDS011;44236;48.098;11.582;2023-09-19T15:08:43;2.83;;;0.80;;
41643;SDS011;44236;48.098;11.582;2023-09-19T15:11:16;2.40;;;0.82;;
41643;SDS011;44236;48.098;11.582;2023-09-19T15:13:42;3.65;;;1.02;;
41643;SDS011;44236;48.098;11.582;2023-09-19T15:16:09;2.95;;;0.80;;
41643;SDS011;44236;48.098;11.582;2023-09-19T15:18:35;1.48;;;0.50;;
41643;SDS011;44236;48.098;11.582;2023-09-19T15:21:07;3.20;;;0.80;;
41643;SDS011;44236;48.098;11.582;2023-09-19T15:23:34;1.65;;;0.70;;
41643;SDS011;44236;48.098;11.582;2023-09-19T15:26:01;3.17;;;0.80;;
41643;SDS011;44236;48.098;11.582;2023-09-19T15:28:31;3.05;;;0.88;;
41643;SDS011;44236;48.098;11.582;2023-09-19T15:31:01;5.43;;;0.70;;
41643;SDS011;44236;48.098;11.582;2023-09-19T15:33:32;4.95;;;0.77;;
41643;SDS011;44236;48.098;11.582;2023-09-19T15:38:27;3.28;;;0.75;;
41643;SDS011;44236;48.098;11.582;2023-09-19T15:40:53;3.35;;;0.70;;
41643;SDS011;44236;48.098;11.582;2023-09-19T15:43:19;3.17;;;0.70;;
41643;SDS011;44236;48.098;11.582;2023-09-19T15:45:46;3.80;;;0.50;;